Time;durP1;ratioP1;P1;durP2;ratioP2;P2;SDS_P1;SDS_P2;PMS_P1;PMS_P2;Temp;Humidity;BMP_temperature;BMP_pressure;BME280_temperature;BME280_humidity;BME280_pressure;Samples;Min_cycle;Max_cycle;Signal;HPM_P1;HPM_P2
2023/07/11 00:00:19;;;;;;;10.13;6.20;;;;;;;-144.61;100.00;62523.38;5079174;28;20294;-76
2023/07/11 00:02:48;;;;;;;8.55;5.28;;;;;;;-144.61;100.00;62523.38;5068094;28;20226;-78
2023/07/11 00:05:18;;;;;;;9.32;5.07;;;;;;;-144.61;100.00;62523.38;5068110;28;20616;-75
2023/07/11 00:07:46;;;;;;;7.45;5.75;;;;;;;-144.61;100.00;62523.38;5068141;28;20307;-78
2023/07/11 00:10:15;;;;;;;7.60;5.55;;;;;;;-144.61;100.00;62523.38;5079084;28;20229;-77
2023/07/11 00:12:42;;;;;;;9.10;5.10;;;;;;;-144.61;100.00;62523.38;5088421;28;20261;-78
2023/07/11 00:15:11;;;;;;;7.20;4.95;;;;;;;-144.61;100.00;62523.38;5087890;28;20198;-76
2023/07/11 00:17:38;;;;;;;7.43;5.38;;;;;;;-144.61;100.00;62523.38;5087569;28;20237;-78
2023/07/11 00:20:08;;;;;;;8.73;5.80;;;;;;;-144.61;100.00;62523.38;5076045;28;20244;-77
2023/07/11 00:22:36;;;;;;;10.52;5.97;;;;;;;-144.61;100.00;62523.38;5086943;28;20214;-76
2023/07/11 00:25:04;;;;;;;10.63;6.00;;;;;;;-144.61;100.00;62523.38;5087641;28;20210;-76
2023/07/11 00:27:31;;;;;;;9.18;6.75;;;;;;;-144.61;100.00;62523.38;5087510;28;20218;-76
2023/07/11 00:29:58;;;;;;;8.65;6.15;;;;;;;-144.61;100.00;62523.38;5088254;28;20565;-76
2023/07/11 00:32:25;;;;;;;7.28;5.80;;;;;;;-144.61;100.00;62523.38;5081210;28;20202;-76
2023/07/11 00:34:52;;;;;;;9.80;5.63;;;;;;;-144.61;100.00;62523.38;5081284;28;20211;-76
2023/07/11 00:37:19;;;;;;;10.60;5.85;;;;;;;-144.61;100.00;62523.38;5074319;28;20749;-76
2023/07/11 00:39:47;;;;;;;11.05;6.05;;;;;;;-144.61;100.00;62523.38;5086469;28;20206;-76
2023/07/11 00:42:14;;;;;;;9.43;5.35;;;;;;;-144.61;100.00;62523.38;5078306;28;20199;-76
2023/07/11 00:44:52;;;;;;;8.43;5.78;;;;;;;-144.61;100.00;62523.38;5069138;28;20235;-76
2023/07/11 00:47:19;;;;;;;11.20;5.47;;;;;;;-144.61;100.00;62523.38;5087593;28;20206;-76
2023/07/11 00:49:48;;;;;;;10.27;6.50;;;;;;;-144.61;100.00;62523.38;5087856;28;20730;-77
2023/07/11 00:52:17;;;;;;;9.25;5.45;;;;;;;-144.61;100.00;62523.38;5077435;28;20646;-76
2023/07/11 00:54:48;;;;;;;9.18;6.07;;;;;;;-144.61;100.00;62523.38;5066945;28;20666;-76
2023/07/11 00:57:18;;;;;;;10.88;5.60;;;;;;;-144.61;100.00;62523.38;5077718;28;20287;-76
2023/07/11 00:59:45;;;;;;;9.07;6.65;;;;;;;-144.61;100.00;62523.38;5082130;28;20210;-76
2023/07/11 01:02:16;;;;;;;14.40;5.75;;;;;;;-144.61;100.00;62523.38;5066951;28;20292;-75
2023/07/11 01:04:44;;;;;;;7.32;5.32;;;;;;;-144.61;100.00;62523.38;5086833;28;20227;-78
2023/07/11 01:07:16;;;;;;;9.45;5.65;;;;;;;-144.61;100.00;62523.38;5100309;28;20209;-76
2023/07/11 01:09:43;;;;;;;10.23;5.90;;;;;;;-144.61;100.00;62523.38;5076200;28;20555;-76
2023/07/11 01:12:13;;;;;;;9.05;5.55;;;;;;;-144.61;100.00;62523.38;5091269;28;20657;-76
2023/07/11 01:14:41;;;;;;;7.95;6.10;;;;;;;-144.61;100.00;62523.38;5091485;28;20289;-76
2023/07/11 01:17:25;;;;;;;11.02;5.97;;;;;;;-144.61;100.00;62523.38;5090696;28;20234;-76
2023/07/11 01:19:54;;;;;;;11.43;6.40;;;;;;;-144.61;100.00;62523.38;5091271;28;20217;-76
2023/07/11 01:22:22;;;;;;;9.98;6.35;;;;;;;-144.61;100.00;62523.38;5095235;28;20224;-76
2023/07/11 01:24:50;;;;;;;8.85;5.65;;;;;;;-144.61;100.00;62523.38;5095910;28;20304;-75
2023/07/11 01:27:17;;;;;;;9.20;6.00;;;;;;;-144.61;100.00;62523.38;5089687;28;20275;-76
2023/07/11 01:29:43;;;;;;;9.52;6.00;;;;;;;-144.61;100.00;62523.38;5091339;28;20476;-75
2023/07/11 01:32:11;;;;;;;12.00;6.07;;;;;;;-144.61;100.00;62523.38;5090864;28;20206;-76
2023/07/11 01:34:37;;;;;;;10.40;5.88;;;;;;;-144.61;100.00;62523.38;5091196;28;20500;-76
2023/07/11 01:37:04;;;;;;;11.38;7.05;;;;;;;-144.61;100.00;62523.38;5095417;28;20225;-76
2023/07/11 01:39:33;;;;;;;9.85;6.38;;;;;;;-144.61;100.00;62523.38;5099335;28;20786;-76
2023/07/11 01:42:00;;;;;;;9.65;5.97;;;;;;;-144.61;100.00;62523.38;5099149;28;20230;-76
2023/07/11 01:44:28;;;;;;;8.57;5.93;;;;;;;-144.61;100.00;62523.38;5069589;28;20315;-76
2023/07/11 01:46:55;;;;;;;13.52;6.70;;;;;;;-144.61;100.00;62523.38;5090028;28;20199;-76
2023/07/11 01:49:22;;;;;;;7.75;5.80;;;;;;;-144.61;100.00;62523.38;5090866;28;20215;-76
2023/07/11 01:51:49;;;;;;;11.85;5.55;;;;;;;-144.61;100.00;62523.38;5097555;28;20677;-76
2023/07/11 01:54:15;;;;;;;10.57;6.35;;;;;;;-144.61;100.00;62523.38;5070270;28;20211;-76
2023/07/11 01:56:43;;;;;;;8.55;5.40;;;;;;;-144.61;100.00;62523.38;5076890;28;20244;-76
2023/07/11 01:59:10;;;;;;;8.57;6.05;;;;;;;-144.61;100.00;62523.38;5090606;28;20275;-76
2023/07/11 02:01:37;;;;;;;9.18;5.20;;;;;;;-144.61;100.00;62523.38;5090725;28;20206;-76
2023/07/11 02:04:04;;;;;;;7.70;5.53;;;;;;;-144.61;100.00;62523.38;5075697;28;20202;-76
2023/07/11 02:06:31;;;;;;;8.38;5.65;;;;;;;-144.61;100.00;62523.38;5069947;28;20207;-76
2023/07/11 02:08:58;;;;;;;13.80;5.75;;;;;;;-144.61;100.00;62523.38;5070371;28;20214;-76
2023/07/11 02:11:24;;;;;;;9.93;5.85;;;;;;;-144.61;100.00;62523.38;5069900;28;20211;-76
2023/07/11 02:13:52;;;;;;;8.70;5.85;;;;;;;-144.61;100.00;62523.38;5084509;28;20252;-76
2023/07/11 02:16:19;;;;;;;15.35;6.63;;;;;;;-144.61;100.00;62523.38;5090342;28;20202;-76
2023/07/11 02:18:46;;;;;;;9.30;5.72;;;;;;;-144.61;100.00;62523.38;5089558;28;20701;-76
2023/07/11 02:21:13;;;;;;;8.65;6.38;;;;;;;-144.61;100.00;62523.38;5088982;28;20214;-76
2023/07/11 02:23:40;;;;;;;19.48;6.88;;;;;;;-144.61;100.00;62523.38;5089852;28;20206;-76
2023/07/11 02:26:07;;;;;;;10.05;6.40;;;;;;;-144.61;100.00;62523.38;5090114;28;20207;-77
2023/07/11 02:28:34;;;;;;;10.32;6.30;;;;;;;-144.61;100.00;62523.38;5090100;28;20213;-76
2023/07/11 02:31:02;;;;;;;11.98;6.82;;;;;;;-144.61;100.00;62523.38;5089755;28;20550;-76
2023/07/11 02:33:28;;;;;;;11.57;6.85;;;;;;;-144.61;100.00;62523.38;5089782;28;20267;-77
2023/07/11 02:35:55;;;;;;;10.77;6.82;;;;;;;-144.61;100.00;62523.38;5090217;28;20259;-76
2023/07/11 02:38:22;;;;;;;8.95;7.05;;;;;;;-144.61;100.00;62523.38;5089503;28;20234;-76
2023/07/11 02:40:49;;;;;;;8.85;6.15;;;;;;;-144.61;100.00;62523.38;5089750;28;20242;-76
2023/07/11 02:43:16;;;;;;;10.93;6.13;;;;;;;-144.61;100.00;62523.38;5089333;28;20206;-75
2023/07/11 02:45:43;;;;;;;10.80;6.45;;;;;;;-144.61;100.00;62523.38;5089598;28;20229;-76
2023/07/11 02:48:11;;;;;;;8.65;6.05;;;;;;;-144.61;100.00;62523.38;5089461;28;20220;-76
2023/07/11 02:50:38;;;;;;;8.02;6.20;;;;;;;-144.61;100.00;62523.38;5099918;28;20293;-76
2023/07/11 02:53:05;;;;;;;9.00;6.00;;;;;;;-144.61;100.00;62523.38;5092690;28;20206;-76
2023/07/11 02:55:31;;;;;;;9.85;6.22;;;;;;;-144.61;100.00;62523.38;5089614;28;20205;-76
2023/07/11 02:57:58;;;;;;;11.00;6.38;;;;;;;-144.61;100.00;62523.38;5098620;28;20272;-77
2023/07/11 03:00:25;;;;;;;9.05;6.20;;;;;;;-144.61;100.00;62523.38;5081809;28;20653;-76
2023/07/11 03:02:52;;;;;;;9.38;6.22;;;;;;;-144.61;100.00;62523.38;5089022;28;20256;-76
2023/07/11 03:05:20;;;;;;;10.88;6.32;;;;;;;-144.61;100.00;62523.38;5099898;28;20638;-76
2023/07/11 03:07:47;;;;;;;13.43;5.95;;;;;;;-144.61;100.00;62523.38;5072323;28;20213;-76
2023/07/11 03:10:13;;;;;;;10.20;6.45;;;;;;;-144.61;100.00;62523.38;5068732;28;20318;-76
2023/07/11 03:12:40;;;;;;;9.75;6.55;;;;;;;-144.61;100.00;62523.38;5068597;28;20264;-77
2023/07/11 03:15:08;;;;;;;10.75;6.43;;;;;;;-144.61;100.00;62523.38;5069102;28;20256;-76
2023/07/11 03:17:35;;;;;;;10.43;6.55;;;;;;;-144.61;100.00;62523.38;5068767;28;20235;-76
2023/07/11 03:20:02;;;;;;;10.60;5.93;;;;;;;-144.61;100.00;62523.38;5069008;28;20203;-76
2023/07/11 03:22:30;;;;;;;7.72;6.05;;;;;;;-144.61;100.00;62523.38;5068697;28;20424;-76
2023/07/11 03:24:57;;;;;;;8.75;6.05;;;;;;;-144.61;100.00;62523.38;5068635;28;20654;-77
2023/07/11 03:27:24;;;;;;;9.82;6.47;;;;;;;-144.61;100.00;62523.38;5088123;28;20221;-76
2023/07/11 03:29:51;;;;;;;11.95;6.28;;;;;;;-144.61;100.00;62523.38;5088631;28;20259;-76
2023/07/11 03:32:17;;;;;;;10.50;7.00;;;;;;;-144.61;100.00;62523.38;5088004;28;20210;-75
2023/07/11 03:34:44;;;;;;;7.93;6.28;;;;;;;-144.61;100.00;62523.38;5089029;28;20259;-77
2023/07/11 03:37:11;;;;;;;10.02;7.53;;;;;;;-144.61;100.00;62523.38;5088279;28;20560;-75
2023/07/11 03:39:39;;;;;;;12.30;7.95;;;;;;;-144.61;100.00;62523.38;5088966;28;20206;-76
2023/07/11 03:42:06;;;;;;;8.18;6.57;;;;;;;-144.61;100.00;62523.38;5088531;28;20665;-76
2023/07/11 03:44:33;;;;;;;8.02;5.93;;;;;;;-144.61;100.00;62523.38;5088202;28;20279;-76
2023/07/11 03:46:59;;;;;;;8.88;5.90;;;;;;;-144.61;100.00;62523.38;5088260;28;20210;-76
2023/07/11 03:49:26;;;;;;;8.05;5.65;;;;;;;-144.61;100.00;62523.38;5088250;28;20346;-75
2023/07/11 03:51:53;;;;;;;9.68;6.95;;;;;;;-144.61;100.00;62523.38;5096109;28;20205;-75
2023/07/11 03:54:23;;;;;;;8.32;6.70;;;;;;;-144.61;100.00;62523.38;5080480;28;20207;-76
2023/07/11 03:56:51;;;;;;;11.95;7.55;;;;;;;-144.61;100.00;62523.38;5067700;28;20261;-76
2023/07/11 03:59:18;;;;;;;11.98;7.80;;;;;;;-144.61;100.00;62523.38;5071548;28;20693;-76
2023/07/11 04:01:45;;;;;;;9.32;7.15;;;;;;;-144.61;100.00;62523.38;5088754;28;20214;-75
2023/07/11 04:04:12;;;;;;;9.50;6.85;;;;;;;-144.61;100.00;62523.38;5088216;28;20297;-76
2023/07/11 04:06:39;;;;;;;11.95;7.53;;;;;;;-144.61;100.00;62523.38;5088225;28;20220;-77
2023/07/11 04:09:05;;;;;;;13.02;7.07;;;;;;;-144.61;100.00;62523.38;5088059;28;20209;-75
2023/07/11 04:11:32;;;;;;;9.00;7.03;;;;;;;-144.61;100.00;62523.38;5088336;28;20210;-76
2023/07/11 04:14:00;;;;;;;10.35;6.70;;;;;;;-144.61;100.00;62523.38;5088458;28;20202;-76
2023/07/11 04:16:27;;;;;;;8.68;6.63;;;;;;;-144.61;100.00;62523.38;5087776;28;20206;-76
2023/07/11 04:18:54;;;;;;;8.55;6.18;;;;;;;-144.61;100.00;62523.38;5088449;28;20233;-76
2023/07/11 04:21:20;;;;;;;7.60;6.60;;;;;;;-144.61;100.00;62523.38;5088470;28;20206;-76
2023/07/11 04:23:47;;;;;;;9.32;6.93;;;;;;;-144.61;100.00;62523.38;5088064;28;20202;-75
2023/07/11 04:26:14;;;;;;;9.02;7.00;;;;;;;-144.61;100.00;62523.38;5088253;28;20221;-76
2023/07/11 04:28:41;;;;;;;13.73;7.07;;;;;;;-144.61;100.00;62523.38;5087974;28;20263;-76
2023/07/11 04:31:09;;;;;;;9.77;7.07;;;;;;;-144.61;100.00;62523.38;5098131;28;20284;-76
2023/07/11 04:33:36;;;;;;;11.05;7.40;;;;;;;-144.61;100.00;62523.38;5075225;28;20219;-76
2023/07/11 04:36:08;;;;;;;8.13;6.80;;;;;;;-144.61;100.00;62523.38;5068037;28;20203;-76
2023/07/11 04:38:34;;;;;;;8.70;6.57;;;;;;;-144.61;100.00;62523.38;5067750;28;20231;-76
2023/07/11 04:41:03;;;;;;;7.63;6.15;;;;;;;-144.61;100.00;62523.38;5067928;28;20272;-76
2023/07/11 04:43:30;;;;;;;9.05;6.72;;;;;;;-144.61;100.00;62523.38;5069370;28;20239;-76
2023/07/11 04:45:57;;;;;;;9.25;6.60;;;;;;;-144.61;100.00;62523.38;5084253;28;20568;-76
2023/07/11 04:48:25;;;;;;;9.25;6.63;;;;;;;-144.61;100.00;62523.38;5091619;28;20198;-77
2023/07/11 04:50:56;;;;;;;8.55;6.57;;;;;;;-144.61;100.00;62523.38;5104043;28;20206;-75
2023/07/11 04:53:23;;;;;;;7.43;6.70;;;;;;;-144.61;100.00;62523.38;5072426;28;20371;-75
2023/07/11 04:55:55;;;;;;;7.85;6.68;;;;;;;-144.61;100.00;62523.38;5071529;28;20650;-75
2023/07/11 04:58:22;;;;;;;8.73;6.38;;;;;;;-144.61;100.00;62523.38;5078753;28;20218;-75
2023/07/11 05:00:49;;;;;;;8.05;6.85;;;;;;;-144.61;100.00;62523.38;5077898;28;20646;-77
2023/07/11 05:03:16;;;;;;;8.52;7.32;;;;;;;-144.61;100.00;62523.38;5099830;28;20206;-77
2023/07/11 05:05:44;;;;;;;8.80;7.28;;;;;;;-144.61;100.00;62523.38;5083764;28;20220;-75
2023/07/11 05:08:11;;;;;;;7.95;6.85;;;;;;;-144.61;100.00;62523.38;5079543;28;20210;-76
2023/07/11 05:10:37;;;;;;;11.40;6.43;;;;;;;-144.61;100.00;62523.38;5106561;28;20306;-76
2023/07/11 05:13:04;;;;;;;8.60;7.28;;;;;;;-144.61;100.00;62523.38;5100369;28;20259;-76
2023/07/11 05:15:31;;;;;;;7.80;7.00;;;;;;;-144.61;100.00;62523.38;5083751;28;20207;-77
2023/07/11 05:17:58;;;;;;;9.05;6.32;;;;;;;-144.61;100.00;62523.38;5099891;28;20242;-77
2023/07/11 05:20:25;;;;;;;10.68;7.32;;;;;;;-144.61;100.00;62523.38;5093772;28;20210;-76
2023/07/11 05:22:53;;;;;;;10.23;7.45;;;;;;;-144.61;100.00;62523.38;5104190;28;20202;-76
2023/07/11 05:25:20;;;;;;;11.65;7.55;;;;;;;-144.61;100.00;62523.38;5105616;28;20205;-76
2023/07/11 05:27:46;;;;;;;9.07;7.00;;;;;;;-144.61;100.00;62523.38;5091511;28;20572;-76
2023/07/11 05:30:14;;;;;;;10.98;7.22;;;;;;;-144.61;100.00;62523.38;5093131;28;20210;-76
2023/07/11 05:32:41;;;;;;;10.68;7.30;;;;;;;-144.61;100.00;62523.38;5103715;28;20202;-76
2023/07/11 05:35:08;;;;;;;9.90;7.07;;;;;;;-144.61;100.00;62523.38;5105102;28;20741;-76
2023/07/11 05:37:35;;;;;;;8.98;7.72;;;;;;;-144.61;100.00;62523.38;5091517;28;20210;-76
2023/07/11 05:40:04;;;;;;;11.38;6.68;;;;;;;-144.61;100.00;62523.38;5088192;28;20704;-77
2023/07/11 05:42:30;;;;;;;7.70;6.72;;;;;;;-144.61;100.00;62523.38;5071035;28;20254;-76
2023/07/11 05:44:57;;;;;;;11.45;7.40;;;;;;;-144.61;100.00;62523.38;5074217;28;20214;-76
2023/07/11 05:47:24;;;;;;;9.75;7.47;;;;;;;-144.61;100.00;62523.38;5098647;28;20613;-76
2023/07/11 05:49:51;;;;;;;10.75;7.45;;;;;;;-144.61;100.00;62523.38;5078440;28;20619;-75
2023/07/11 05:52:17;;;;;;;11.93;7.72;;;;;;;-144.61;100.00;62523.38;5090293;28;20195;-75
2023/07/11 05:54:44;;;;;;;11.52;7.28;;;;;;;-144.61;100.00;62523.38;5073162;28;20260;-75
2023/07/11 05:57:12;;;;;;;12.68;7.63;;;;;;;-144.61;100.00;62523.38;5071012;28;20203;-75
2023/07/11 05:59:39;;;;;;;8.85;7.00;;;;;;;-144.61;100.00;62523.38;5072762;28;20234;-76
2023/07/11 06:02:07;;;;;;;10.55;7.68;;;;;;;-144.61;100.00;62523.38;5086124;28;20240;-76
2023/07/11 06:04:33;;;;;;;10.38;7.28;;;;;;;-144.61;100.00;62523.38;5088494;28;20275;-76
2023/07/11 06:07:02;;;;;;;10.20;8.27;;;;;;;-144.61;100.00;62523.38;5086202;28;20236;-76
2023/07/11 06:09:29;;;;;;;10.57;7.60;;;;;;;-144.61;100.00;62523.38;5086243;28;20356;-76
2023/07/11 06:11:55;;;;;;;10.52;7.95;;;;;;;-144.61;100.00;62523.38;5081685;28;20197;-75
2023/07/11 06:14:23;;;;;;;11.27;8.02;;;;;;;-144.61;100.00;62523.38;5085597;28;20270;-76
2023/07/11 06:16:50;;;;;;;13.02;8.05;;;;;;;-144.61;100.00;62523.38;5085353;28;20199;-76
2023/07/11 06:19:17;;;;;;;12.68;8.10;;;;;;;-144.61;100.00;62523.38;5102316;28;20290;-76
2023/07/11 06:21:44;;;;;;;11.65;8.52;;;;;;;-144.61;100.00;62523.38;5091217;28;20198;-75
2023/07/11 06:24:11;;;;;;;10.13;8.40;;;;;;;-144.61;100.00;62523.38;5080209;28;20654;-75
2023/07/11 06:26:38;;;;;;;12.65;8.85;;;;;;;-144.61;100.00;62523.38;5080409;28;20198;-77
2023/07/11 06:29:05;;;;;;;10.55;7.68;;;;;;;-144.61;100.00;62523.38;5081521;28;20220;-77
2023/07/11 06:31:33;;;;;;;11.43;7.40;;;;;;;-144.61;100.00;62523.38;5079847;28;20211;-75
2023/07/11 06:34:00;;;;;;;13.55;7.85;;;;;;;-144.61;100.00;62523.38;5084327;28;20317;-75
2023/07/11 06:36:26;;;;;;;11.90;7.80;;;;;;;-144.61;100.00;62523.38;5085228;28;20201;-75
2023/07/11 06:38:53;;;;;;;10.70;7.75;;;;;;;-144.61;100.00;62523.38;5089257;28;20218;-76
2023/07/11 06:41:20;;;;;;;9.82;6.97;;;;;;;-144.61;100.00;62523.38;5089620;28;20225;-77
2023/07/11 06:43:46;;;;;;;11.00;7.70;;;;;;;-144.61;100.00;62523.38;5088009;28;20226;-77
2023/07/11 06:46:14;;;;;;;12.27;7.78;;;;;;;-144.61;100.00;62523.38;5088072;28;20268;-77
2023/07/11 06:48:42;;;;;;;10.40;7.05;;;;;;;-144.61;100.00;62523.38;5087834;28;20650;-77
2023/07/11 06:51:09;;;;;;;9.98;7.75;;;;;;;-144.61;100.00;62523.38;5086825;28;20194;-76
2023/07/11 06:53:36;;;;;;;9.07;7.65;;;;;;;-144.61;100.00;62523.38;5088432;28;20569;-77
2023/07/11 06:56:04;;;;;;;9.60;7.97;;;;;;;-144.61;100.00;62523.38;5088050;28;20198;-76
2023/07/11 06:58:31;;;;;;;12.65;8.32;;;;;;;-144.61;100.00;62523.38;5086219;28;20194;-77
2023/07/11 07:01:01;;;;;;;12.40;8.30;;;;;;;-144.61;100.00;62523.38;5089236;28;20205;-77
2023/07/11 07:03:28;;;;;;;10.43;7.82;;;;;;;-144.61;100.00;62523.38;5088131;28;20206;-76
2023/07/11 07:05:58;;;;;;;13.93;7.65;;;;;;;-144.61;100.00;62523.38;5086843;28;20662;-77
2023/07/11 07:08:26;;;;;;;13.40;7.72;;;;;;;-144.61;100.00;62523.38;5088479;28;20650;-76
2023/07/11 07:10:53;;;;;;;10.07;7.60;;;;;;;-144.61;100.00;62523.38;5087318;28;20198;-77
2023/07/11 07:13:22;;;;;;;10.02;7.60;;;;;;;-144.61;100.00;62523.38;5100761;28;20251;-76
2023/07/11 07:15:50;;;;;;;14.93;7.45;;;;;;;-144.61;100.00;62523.38;5073734;28;20704;-77
2023/07/11 07:18:18;;;;;;;11.18;7.00;;;;;;;-144.61;100.00;62523.38;5069084;28;20210;-76
2023/07/11 07:20:45;;;;;;;9.52;7.30;;;;;;;-144.61;100.00;62523.38;5084280;28;20754;-77
2023/07/11 07:23:14;;;;;;;9.95;7.65;;;;;;;-144.61;100.00;62523.38;5075687;28;20261;-76
2023/07/11 07:25:41;;;;;;;9.32;7.43;;;;;;;-144.61;100.00;62523.38;5083003;28;20230;-76
2023/07/11 07:28:08;;;;;;;9.65;7.38;;;;;;;-144.61;100.00;62523.38;5077487;28;20198;-76
2023/07/11 07:30:35;;;;;;;10.93;7.43;;;;;;;-144.61;100.00;62523.38;5083258;28;20317;-74
2023/07/11 07:33:02;;;;;;;11.82;7.88;;;;;;;-144.61;100.00;62523.38;5088677;28;20209;-76
2023/07/11 07:35:29;;;;;;;11.45;8.55;;;;;;;-144.61;100.00;62523.38;5084655;28;20290;-76
2023/07/11 07:37:56;;;;;;;15.23;8.93;;;;;;;-144.61;100.00;62523.38;5087595;28;20228;-77
2023/07/11 07:40:24;;;;;;;13.93;8.63;;;;;;;-144.61;100.00;62523.38;5088354;28;20272;-76
2023/07/11 07:42:51;;;;;;;9.90;8.18;;;;;;;-144.61;100.00;62523.38;5088816;28;20260;-77
2023/07/11 07:45:18;;;;;;;12.32;7.65;;;;;;;-144.61;100.00;62523.38;5087413;28;20500;-79
2023/07/11 07:47:46;;;;;;;12.18;7.90;;;;;;;-144.61;100.00;62523.38;5088980;28;20236;-79
2023/07/11 07:50:13;;;;;;;11.48;7.40;;;;;;;-144.61;100.00;62523.38;5075184;28;20681;-76
2023/07/11 07:52:39;;;;;;;13.10;7.65;;;;;;;-144.61;100.00;62523.38;5088313;28;20248;-76
2023/07/11 07:55:08;;;;;;;12.57;7.82;;;;;;;-144.61;100.00;62523.38;5088729;28;20199;-75
2023/07/11 07:57:36;;;;;;;10.68;7.93;;;;;;;-144.61;100.00;62523.38;5088412;28;20202;-77
2023/07/11 08:00:04;;;;;;;10.93;8.52;;;;;;;-144.61;100.00;62523.38;5084623;28;20238;-76
2023/07/11 08:02:32;;;;;;;12.30;8.02;;;;;;;-144.61;100.00;62523.38;5086331;28;20240;-76
2023/07/11 08:04:59;;;;;;;9.80;7.00;;;;;;;-144.61;100.00;62523.38;5083484;28;20618;-75
2023/07/11 08:07:27;;;;;;;11.73;8.02;;;;;;;-144.61;100.00;62523.38;5099691;28;20208;-76
2023/07/11 08:09:55;;;;;;;11.57;7.13;;;;;;;-144.61;100.00;62523.38;5078404;28;20207;-75
2023/07/11 08:12:22;;;;;;;9.75;8.13;;;;;;;-144.61;100.00;62523.38;5081788;28;20190;-75
2023/07/11 08:14:50;;;;;;;9.30;7.05;;;;;;;-144.61;100.00;62523.38;5077673;28;20284;-75
2023/07/11 08:17:17;;;;;;;7.88;6.30;;;;;;;-144.61;100.00;62523.38;5086168;28;20617;-75
2023/07/11 08:19:43;;;;;;;9.60;6.35;;;;;;;-144.61;100.00;62523.38;5090022;28;20279;-76
2023/07/11 08:22:10;;;;;;;9.48;6.57;;;;;;;-144.61;100.00;62523.38;5089295;28;20275;-76
2023/07/11 08:24:37;;;;;;;7.90;5.88;;;;;;;-144.61;100.00;62523.38;5086465;28;20550;-76
2023/07/11 08:27:04;;;;;;;6.15;5.57;;;;;;;-144.61;100.00;62523.38;5094427;28;20206;-75
2023/07/11 08:29:31;;;;;;;10.45;5.10;;;;;;;-144.61;100.00;62523.38;5098120;28;20202;-73
2023/07/11 08:31:59;;;;;;;7.97;5.20;;;;;;;-144.61;100.00;62523.38;5090391;28;20224;-74
2023/07/11 08:34:26;;;;;;;7.38;4.90;;;;;;;-144.61;100.00;62523.38;5091169;28;20289;-75
2023/07/11 08:36:53;;;;;;;6.25;5.18;;;;;;;-144.61;100.00;62523.38;5074162;28;20207;-73
2023/07/11 08:39:20;;;;;;;9.10;5.20;;;;;;;-144.61;100.00;62523.38;5071838;28;20234;-76
2023/07/11 08:41:48;;;;;;;5.88;4.90;;;;;;;-144.61;100.00;62523.38;5075877;28;20653;-76
2023/07/11 08:44:19;;;;;;;8.10;5.07;;;;;;;-144.61;100.00;62523.38;5091378;28;20234;-73
2023/07/11 08:46:51;;;;;;;5.82;4.90;;;;;;;-144.61;100.00;62523.38;5090456;28;20241;-75
2023/07/11 08:49:26;;;;;;;5.28;4.78;;;;;;;-144.61;100.00;62523.38;5083120;28;20670;-74
2023/07/11 08:51:57;;;;;;;6.90;4.82;;;;;;;-144.61;100.00;62523.38;5083118;28;20240;-73
2023/07/11 08:54:29;;;;;;;5.97;4.70;;;;;;;-144.61;100.00;62523.38;5075093;28;20203;-76
2023/07/11 08:56:59;;;;;;;7.30;5.03;;;;;;;-144.61;100.00;62523.38;5091696;28;20279;-74
2023/07/11 08:59:40;;;;;;;8.30;4.80;;;;;;;-144.61;100.00;62523.38;5088735;28;20481;-73
2023/07/11 09:02:24;;;;;;;5.85;4.40;;;;;;;-144.61;100.00;62523.38;5085704;28;20203;-74
2023/07/11 09:04:54;;;;;;;5.25;4.70;;;;;;;-144.61;100.00;62523.38;5078925;28;20203;-74
2023/07/11 09:07:33;;;;;;;8.43;4.90;;;;;;;-144.61;100.00;62523.38;5091055;28;20206;-72
2023/07/11 09:10:00;;;;;;;6.55;5.25;;;;;;;-144.61;100.00;62523.38;5091288;28;20206;-75
2023/07/11 09:12:40;;;;;;;6.80;5.10;;;;;;;-144.61;100.00;62523.38;5091506;28;20216;-74
2023/07/11 09:15:15;;;;;;;7.70;5.05;;;;;;;-144.61;100.00;62523.38;5091282;28;20722;-76
2023/07/11 09:17:58;;;;;;;5.40;4.13;;;;;;;-144.61;100.00;62523.38;5090862;28;20205;-71
2023/07/11 09:20:36;;;;;;;5.10;4.40;;;;;;;-144.61;100.00;62523.38;5090787;28;20267;-75
2023/07/11 09:23:15;;;;;;;7.82;4.90;;;;;;;-144.61;100.00;62523.38;5091379;28;20205;-75
2023/07/11 09:25:44;;;;;;;7.38;4.88;;;;;;;-144.61;100.00;62523.38;5099681;28;20194;-74
2023/07/11 09:28:19;;;;;;;6.10;4.20;;;;;;;-144.61;100.00;62523.38;5082426;28;20203;-75
2023/07/11 09:30:51;;;;;;;7.85;5.07;;;;;;;-144.61;100.00;62523.38;5089026;28;20202;-76
2023/07/11 09:33:23;;;;;;;7.30;5.07;;;;;;;-144.61;100.00;62523.38;5076133;28;20557;-76
2023/07/11 09:35:52;;;;;;;4.90;4.40;;;;;;;-144.61;100.00;62523.38;5087373;28;20296;-75
2023/07/11 09:38:24;;;;;;;6.35;4.63;;;;;;;-144.61;100.00;62523.38;5079749;28;20207;-74
2023/07/11 09:40:58;;;;;;;5.65;4.95;;;;;;;-144.61;100.00;62523.38;5070461;28;20238;-75
2023/07/11 09:43:25;;;;;;;5.97;5.05;;;;;;;-144.61;100.00;62523.38;5087526;28;20715;-74
2023/07/11 09:45:52;;;;;;;6.53;4.68;;;;;;;-144.61;100.00;62523.38;5090695;28;20275;-76
2023/07/11 09:48:26;;;;;;;5.90;3.97;;;;;;;-144.61;100.00;62523.38;5090820;28;20279;-72
2023/07/11 09:51:11;;;;;;;7.95;4.78;;;;;;;-144.61;100.00;62523.38;5090343;28;20205;-72
2023/07/11 09:53:42;;;;;;;7.88;4.78;;;;;;;-144.61;100.00;62523.38;5091011;28;20213;-76
2023/07/11 09:56:12;;;;;;;5.82;4.90;;;;;;;-144.61;100.00;62523.38;5090813;28;20206;-76
2023/07/11 09:58:39;;;;;;;6.88;5.30;;;;;;;-144.61;100.00;62523.38;5090451;28;20588;-74
2023/07/11 10:01:14;;;;;;;6.30;4.63;;;;;;;-144.61;100.00;62523.38;5073524;28;20230;-70
2023/07/11 10:03:47;;;;;;;6.35;4.47;;;;;;;-144.61;100.00;62523.38;5070229;28;20493;-77
2023/07/11 10:06:28;;;;;;;6.00;5.20;;;;;;;-144.61;100.00;62523.38;5094986;28;20193;-75
2023/07/11 10:08:55;;;;;;;5.82;4.78;;;;;;;-144.61;100.00;62523.38;5081699;28;20207;-73
2023/07/11 10:11:23;;;;;;;7.32;5.65;;;;;;;-144.61;100.00;62523.38;5069748;28;20230;-76
2023/07/11 10:13:56;;;;;;;6.65;5.13;;;;;;;-144.61;100.00;62523.38;5070097;28;20443;-79
2023/07/11 10:16:23;;;;;;;6.35;5.35;;;;;;;-144.61;100.00;62523.38;5070140;28;20207;-75
2023/07/11 10:18:52;;;;;;;5.40;4.78;;;;;;;-144.61;100.00;62523.38;5070211;28;20597;-75
2023/07/11 10:21:24;;;;;;;8.02;5.20;;;;;;;-144.61;100.00;62523.38;5069421;28;20594;-75
2023/07/11 10:23:53;;;;;;;6.20;5.07;;;;;;;-144.61;100.00;62523.38;5086997;28;20210;-75
2023/07/11 10:26:22;;;;;;;12.13;5.10;;;;;;;-144.61;100.00;62523.38;5089907;28;20259;-75
2023/07/11 10:28:58;;;;;;;7.43;5.00;;;;;;;-144.61;100.00;62523.38;5094504;28;20202;-75
2023/07/11 10:31:28;;;;;;;8.23;4.93;;;;;;;-144.61;100.00;62523.38;5084581;28;20256;-74
2023/07/11 10:34:00;;;;;;;5.57;4.72;;;;;;;-144.61;100.00;62523.38;5069642;28;20203;-76
2023/07/11 10:36:33;;;;;;;9.35;4.85;;;;;;;-144.61;100.00;62523.38;5083497;28;20209;-75
2023/07/11 10:39:03;;;;;;;6.25;4.80;;;;;;;-144.61;100.00;62523.38;5090291;28;20209;-75
2023/07/11 10:41:34;;;;;;;6.13;5.25;;;;;;;-144.61;100.00;62523.38;5089444;28;20317;-76
2023/07/11 10:44:04;;;;;;;7.00;5.10;;;;;;;-144.61;100.00;62523.38;5089450;28;20613;-76
2023/07/11 10:46:38;;;;;;;5.68;5.07;;;;;;;-144.61;100.00;62523.38;5092091;28;20206;-77
2023/07/11 10:49:10;;;;;;;5.88;5.13;;;;;;;-144.61;100.00;62523.38;5093287;28;20204;-76
2023/07/11 10:51:44;;;;;;;5.28;4.72;;;;;;;-144.61;100.00;62523.38;5070982;28;20207;-75
2023/07/11 10:54:20;;;;;;;8.10;4.97;;;;;;;-144.61;100.00;62523.38;5069039;28;20627;-76
2023/07/11 10:56:51;;;;;;;6.55;5.03;;;;;;;-144.61;100.00;62523.38;5101562;28;20221;-75
2023/07/11 10:59:22;;;;;;;5.75;5.00;;;;;;;-144.61;100.00;62523.38;5087228;28;20711;-76
2023/07/11 11:01:58;;;;;;;5.97;4.53;;;;;;;-144.61;100.00;62523.38;5068500;28;20219;-77
2023/07/11 11:04:50;;;;;;;6.28;4.95;;;;;;;-144.61;100.00;62523.38;5069103;28;20666;-76
2023/07/11 11:07:27;;;;;;;7.22;4.65;;;;;;;-144.61;100.00;62523.38;5082927;28;20718;-77
2023/07/11 11:10:04;;;;;;;8.82;5.18;;;;;;;-144.61;100.00;62523.38;5097903;28;20190;-77
2023/07/11 11:12:38;;;;;;;5.80;5.20;;;;;;;-144.61;100.00;62523.38;5078641;28;20263;-76